Terminal Aerodrome Forecast
Issued by NWS Charleston, WV

Current Version | Previous Version | Graphics & Text | Print | Product List | Glossary On
Versions: 1 2 3 4 5 6 7 8 9 10 11 12 13 14 15 16 17 18 19 20 21 22 23 24 25 26 27 28 29 30 31 32 33
783
FTUS41 KRLX 230352 AAC
TAFPKB
TAF AMD
KPKB 230352Z 2304/2324 VRB04KT P6SM BKN060
     FM230600 31005KT P6SM SCT080
     FM230800 33004KT 4SM BR OVC008
     FM231400 35004KT P6SM SCT010
     FM232100 36004KT P6SM FEW140=

USA.gov is the U.S. government's official web portal to all federal, state and local government web resources and services.